Terminal Aerodrome Forecast
Issued by NWS Pocatello, ID

Home | Current Version | Previous Version | Text Only | Print | Product List | Glossary On
Versions: 1 2 3 4 5 6 7 8 9 10 11 12 13 14 15 16 17 18 19 20
000
FTUS45 KPIH 211100
TAFPIH
TAF
KPIH 211120Z 2112/2212 20015G25KT P6SM -RA BKN018
     FM211700 23025G35KT P6SM VCSH SCT008 OVC015
     FM220200 20020G30KT P6SM VCSH BKN015 OVC025
     FM220600 22014KT P6SM OVC015
      TEMPO 2208/2212 4SM BR OVC008=

USA.gov is the U.S. government's official web portal to all federal, state and local government web resources and services.